Portada
METAR-TAF:

METAR-TAF

Aeroports :

Seyresse

Dacs, França

latitud: 43-41N, longitud: 001-04W, altitud: 32 m

Observació

L'informe es va fer fa 31 minuts, a les 05:00 UTC
Vent calma
Temperatura 2°C
Humitat 93%
Pressió 1031 hPa
Visibilitat: 6000 m

METAR: LFBY 200500Z AUTO 00000KT 6000 // ////// 02/01 Q1031

Hora: 06:31 (05:31 UTC)

Pronòstic

L'informe es va fer fa 21 hores i 31 minuts, a les 08:00 UTC
Pronòstic vàlid del 19 a les 09 UTC al 19 a les 18 UTC
Vent 5 kt del Nord-Oest
Visibilitat: 6000 m
Núvols disperses a una alçada de 800 ft
Núvols disperses a una alçada de 3300 ft
Probabilitat 30% :
Temporalment
l' 19 a les 09 UTC al 19 a les 11 UTC
Cel ennuvolat a una alçada de 1000 ft

TAF: LFBY 190800Z 1909/1918 32005KT 6000 SCT008 SCT033 PROB30 TEMPO 1909/1911 BKN010

Observacions i pronòstics meteorològics de més de 4000 aeroports (METAR i TAF).

Les estacions disponibles són els punts grocs i vermells al mapa.

Posi el ratolí al punt desitjat per veure el nom de l'estació.

Feu clic per veure les observacions i els pronòstics meteorològics.

Per canviar el mapa: feu clic els botons verds amb una creu de color negre per apropar; al botó verd amb un guió per allunyar la imatge; o en les fletxes verdes per a mapes adjacents.


METAR-TAF: